Airfield :
LOGIN :

Register | Disclaimer

   EN    FR    IT 

 










Legend :    VFR   Marginal VFR   IFR   Intensive IFR   Very Intensive IFR
Visi :
Ceiling :
>= 8 km
>= 3000ft
5 to 8 km
1000 to 3000 ft
1500m to 5 km
500 to 1000 ft
800 to 1500m
200 to 500 ft
< 800m
< 200 ft
Symbols :   Thunderstorms  Fog  Heavy snow  Heavy precipitations  Wind > 20 kt
SIGMETs :     Misc.  Thunderstorms  Icing  Turbulence  Mountain Waves  Volcanic Ashes







- Airport Elevation : 143 ft


LGEL - Elefsis

CURRENT METAR :
  • 200020Z VRB03KT 9999 FEW025 16/12 Q1008

EXPIRED METARs :
  • 192350Z VRB03KT 9999 FEW025 16/12 Q1009
  • 192250Z VRB03KT 9999 FEW025 17/12 Q1008
  • 192220Z 00000KT 9999 FEW025 17/12 Q1008
  • 192150Z VRB03KT 9999 FEW025 17/13 Q1008

TAF TAF LGEL
Valid from the 20 at 00:00 until the 21 at 00:00 UTC


192300Z 2000/2024 29010KT 9999 FEW025 SCT070
TEMPO 2012/2018 18010KT
TEMPO 2006/2012 FEW020 BKN070
No reported NOTAMs for that airfield.



MET'MAP, your aeronautical weather chart ! - Copyright ORBIFLY December 2007 - Disclaimer

ORBIFLY MET'MAP TEAM :

Programming & Development : Alexandra Zaïnal
Concept & Development : Baudouin d'Aumeries
Co-Development & Prog : Marc-Olivier Méhu
Technical & hardware support : Manuel Goepfert

Contact : metmap@orbifly.com




SOURCES & CREDITS :

   NOAA